createdAt,value
2023-03-16T00:01:51.488Z,4.25
2023-03-16T00:04:18.080Z,4.35
2023-03-16T00:06:45.054Z,4.50
2023-03-16T00:09:11.626Z,4.30
2023-03-16T00:11:38.451Z,4.80
2023-03-16T00:14:05.216Z,4.00
2023-03-16T00:16:34.614Z,3.75
2023-03-16T00:19:03.145Z,3.70
2023-03-16T00:21:29.771Z,4.53
2023-03-16T00:23:59.456Z,3.90
2023-03-16T00:26:26.231Z,4.13
2023-03-16T00:28:52.918Z,4.30
2023-03-16T00:31:20.372Z,3.70
2023-03-16T00:33:46.891Z,4.03
2023-03-16T00:36:13.478Z,3.65
2023-03-16T00:38:41.774Z,4.30
2023-03-16T00:41:08.662Z,4.80
2023-03-16T00:43:37.189Z,4.57
2023-03-16T00:46:03.822Z,4.00
2023-03-16T00:48:33.745Z,4.30
2023-03-16T00:51:02.585Z,4.72
2023-03-16T00:53:31.870Z,4.15
2023-03-16T00:55:58.358Z,4.03
2023-03-16T00:58:25.289Z,4.35
2023-03-16T01:00:54.536Z,4.18
2023-03-16T01:03:21.213Z,4.25
2023-03-16T01:05:48.089Z,4.07
2023-03-16T01:08:15.130Z,3.93
2023-03-16T01:10:41.709Z,4.18
2023-03-16T01:13:08.312Z,4.25
2023-03-16T01:15:37.760Z,4.47
2023-03-16T01:18:06.688Z,4.38
2023-03-16T01:20:33.302Z,3.80
2023-03-16T01:23:05.796Z,4.50
2023-03-16T01:25:32.449Z,4.28
2023-03-16T01:27:59.101Z,4.25
2023-03-16T01:30:26.061Z,3.63
2023-03-16T01:32:52.748Z,3.60
2023-03-16T01:35:19.328Z,3.60
2023-03-16T01:37:45.980Z,3.83
2023-03-16T01:40:12.941Z,4.20
2023-03-16T01:42:46.376Z,4.35
2023-03-16T01:45:50.528Z,3.87
2023-03-16T01:48:17.124Z,3.80
2023-03-16T01:50:45.850Z,4.00
2023-03-16T01:53:12.509Z,4.28
2023-03-16T01:55:40.329Z,4.75
2023-03-16T01:58:09.642Z,3.73
2023-03-16T02:00:36.337Z,3.88
2023-03-16T02:03:14.807Z,4.80
2023-03-16T02:05:59.353Z,4.30
2023-03-16T02:08:27.452Z,4.63
2023-03-16T02:10:56.565Z,4.63
2023-03-16T02:13:27.624Z,4.85
2023-03-16T02:15:54.221Z,4.32
2023-03-16T02:18:21.879Z,4.38
2023-03-16T02:21:30.572Z,5.03
2023-03-16T02:23:57.539Z,4.40
2023-03-16T02:26:36.078Z,4.18
2023-03-16T02:29:20.855Z,4.60
2023-03-16T02:31:48.258Z,4.15
2023-03-16T02:34:17.697Z,3.90
2023-03-16T02:36:46.628Z,4.37
2023-03-16T02:39:13.362Z,3.85
2023-03-16T02:41:40.846Z,3.90
2023-03-16T02:44:19.750Z,3.88
2023-03-16T02:46:48.662Z,3.95
2023-03-16T02:49:38.615Z,4.37
2023-03-16T02:52:06.515Z,3.50
2023-03-16T02:54:33.314Z,3.65
2023-03-16T02:57:00.004Z,4.03
2023-03-16T02:59:26.686Z,4.00
2023-03-16T03:01:58.801Z,3.43
2023-03-16T03:04:25.361Z,3.50
2023-03-16T03:06:52.238Z,3.58
2023-03-16T03:09:19.548Z,3.45
2023-03-16T03:11:47.556Z,4.03
2023-03-16T03:14:14.244Z,3.57
2023-03-16T03:16:40.837Z,4.00
2023-03-16T03:19:10.110Z,4.13
2023-03-16T03:21:36.617Z,4.00
2023-03-16T03:24:03.260Z,3.38
2023-03-16T03:26:29.776Z,3.50
2023-03-16T03:28:56.483Z,4.10
2023-03-16T03:31:23.218Z,3.72
2023-03-16T03:33:49.911Z,3.97
2023-03-16T03:36:19.576Z,3.90
2023-03-16T03:38:46.424Z,4.60
2023-03-16T03:41:13.226Z,3.92
2023-03-16T03:43:39.786Z,4.75
2023-03-16T03:46:06.574Z,4.60
2023-03-16T03:48:33.793Z,4.35
2023-03-16T03:51:00.611Z,4.00
2023-03-16T03:53:27.421Z,4.03
2023-03-16T03:55:54.193Z,4.00
2023-03-16T03:58:23.586Z,3.55
2023-03-16T04:00:50.132Z,4.28
2023-03-16T04:03:18.085Z,3.70
2023-03-16T04:05:44.826Z,3.50
2023-03-16T04:08:11.692Z,3.80
2023-03-16T04:10:38.445Z,3.83
2023-03-16T04:13:05.811Z,3.72
2023-03-16T04:15:35.408Z,4.00
2023-03-16T04:18:02.323Z,3.33
2023-03-16T04:20:31.898Z,3.92
2023-03-16T04:23:00.804Z,3.83
2023-03-16T04:25:27.760Z,3.75
2023-03-16T04:27:54.889Z,3.57
2023-03-16T04:30:22.346Z,3.38
2023-03-16T04:32:49.275Z,3.90
2023-03-16T04:35:17.266Z,4.00
2023-03-16T04:37:44.402Z,3.80
2023-03-16T04:40:14.375Z,3.87
2023-03-16T04:42:41.207Z,4.07
2023-03-16T04:45:11.156Z,3.78
2023-03-16T04:47:38.511Z,3.45
2023-03-16T04:50:05.860Z,3.90
2023-03-16T04:52:35.448Z,3.70
2023-03-16T04:55:02.087Z,3.58
2023-03-16T04:57:30.187Z,4.50
2023-03-16T04:59:56.766Z,4.78
2023-03-16T05:02:26.878Z,3.90
2023-03-16T05:04:53.491Z,3.70
2023-03-16T05:07:20.199Z,3.35
2023-03-16T05:09:46.841Z,3.28
2023-03-16T05:12:13.429Z,3.67
2023-03-16T05:14:42.077Z,3.15
2023-03-16T05:17:08.772Z,3.93
2023-03-16T05:19:35.513Z,3.30
2023-03-16T05:22:02.137Z,3.55
2023-03-16T05:24:28.856Z,3.33
2023-03-16T05:26:55.585Z,3.50
2023-03-16T05:29:22.236Z,3.70
2023-03-16T05:31:49.124Z,3.33
2023-03-16T05:34:15.836Z,2.92
2023-03-16T05:36:42.651Z,3.33
2023-03-16T05:39:09.270Z,2.67
2023-03-16T05:41:36.018Z,2.70
2023-03-16T05:44:03.132Z,3.05
2023-03-16T05:46:29.927Z,2.97
2023-03-16T05:48:56.528Z,2.78
2023-03-16T05:51:23.324Z,2.90
2023-03-16T05:53:52.195Z,2.70
2023-03-16T05:56:18.695Z,3.30
2023-03-16T05:58:48.180Z,3.03
2023-03-16T06:01:14.750Z,3.38
2023-03-16T06:03:41.341Z,2.70
2023-03-16T06:06:08.007Z,2.67
2023-03-16T06:08:34.523Z,2.90
2023-03-16T06:11:01.073Z,2.72
2023-03-16T06:13:27.640Z,2.97
2023-03-16T06:15:56.013Z,3.40
2023-03-16T06:18:25.588Z,3.33
2023-03-16T06:20:52.140Z,3.45
2023-03-16T06:23:21.673Z,3.30
2023-03-16T06:25:51.755Z,2.97
2023-03-16T06:28:18.229Z,3.65
2023-03-16T06:30:48.098Z,3.27
2023-03-16T06:33:37.157Z,3.30
2023-03-16T06:36:03.983Z,3.17
2023-03-16T06:38:36.936Z,4.00
2023-03-16T06:41:24.113Z,3.67
2023-03-16T06:44:03.429Z,3.67
2023-03-16T06:49:43.449Z,3.42
2023-03-16T06:52:35.516Z,3.50
2023-03-16T06:55:11.424Z,3.67
2023-03-16T06:57:42.604Z,3.67
2023-03-16T07:00:12.527Z,3.72
2023-03-16T07:02:39.240Z,4.22
2023-03-16T07:05:07.041Z,3.97
2023-03-16T07:10:18.129Z,3.60
2023-03-16T07:12:54.133Z,3.15
2023-03-16T07:15:31.406Z,3.67
2023-03-16T07:20:41.598Z,3.20
2023-03-16T07:23:13.254Z,3.40
2023-03-16T07:25:40.053Z,3.88
2023-03-16T07:31:13.575Z,3.22
2023-03-16T07:33:43.287Z,3.40
2023-03-16T07:36:10.145Z,3.33
2023-03-16T07:38:36.838Z,3.10
2023-03-16T07:41:03.799Z,3.30
2023-03-16T07:43:53.112Z,3.55
2023-03-16T07:46:18.783Z,3.03
2023-03-16T07:48:48.466Z,3.00
2023-03-16T07:51:15.320Z,3.22
2023-03-16T07:53:42.122Z,3.33
2023-03-16T07:56:08.964Z,2.70
2023-03-16T07:58:38.294Z,3.03
2023-03-16T08:01:05.141Z,3.13
2023-03-16T08:03:43.327Z,2.58
2023-03-16T08:06:15.785Z,2.95
2023-03-16T08:08:44.794Z,3.10
2023-03-16T08:11:14.288Z,3.05
2023-03-16T08:13:54.549Z,2.83
2023-03-16T08:16:30.573Z,3.20
2023-03-16T08:18:58.355Z,3.25
2023-03-16T08:21:24.952Z,3.28
2023-03-16T08:24:04.352Z,3.55
2023-03-16T08:26:31.655Z,3.13
2023-03-16T08:29:00.990Z,3.20
2023-03-16T08:31:27.623Z,3.13
2023-03-16T08:33:54.286Z,2.90
2023-03-16T08:39:42.350Z,3.73
2023-03-16T08:42:12.777Z,3.05
2023-03-16T08:44:46.196Z,3.33
2023-03-16T08:47:12.825Z,2.95
2023-03-16T08:49:39.780Z,3.22
2023-03-16T08:52:07.560Z,3.20
2023-03-16T08:54:34.723Z,3.53
2023-03-16T08:57:14.127Z,3.55
2023-03-16T08:59:48.534Z,3.30
2023-03-16T09:02:25.210Z,3.72
2023-03-16T09:04:52.065Z,4.23
2023-03-16T09:07:19.235Z,3.90
2023-03-16T09:09:47.269Z,3.70
2023-03-16T09:12:16.496Z,3.50
2023-03-16T09:14:43.130Z,3.55
2023-03-16T09:17:09.779Z,3.23
2023-03-16T09:19:53.818Z,3.10
2023-03-16T09:22:22.112Z,3.00
2023-03-16T09:24:49.196Z,3.40
2023-03-16T09:27:21.638Z,3.78
2023-03-16T09:29:48.932Z,3.43
2023-03-16T09:32:15.496Z,3.58
2023-03-16T09:37:23.182Z,3.20
2023-03-16T09:39:50.229Z,3.15
2023-03-16T09:42:29.196Z,3.37
2023-03-16T09:45:15.127Z,3.13
2023-03-16T09:47:43.257Z,3.33
2023-03-16T09:50:23.586Z,3.47
2023-03-16T09:53:09.192Z,2.30
2023-03-16T09:55:41.059Z,3.20
2023-03-16T09:58:18.172Z,2.90
2023-03-16T10:01:23.608Z,2.50
2023-03-16T10:06:58.489Z,2.92
2023-03-16T10:09:28.339Z,3.40
2023-03-16T10:12:02.919Z,2.72
2023-03-16T10:15:13.956Z,3.55
2023-03-16T10:17:56.252Z,3.50
2023-03-16T10:20:35.159Z,3.35
2023-03-16T10:23:20.392Z,2.83
2023-03-16T10:26:07.189Z,3.03
2023-03-16T10:28:36.051Z,3.30
2023-03-16T10:31:18.969Z,3.13
2023-03-16T10:33:48.322Z,3.10
2023-03-16T10:36:44.328Z,3.40
2023-03-16T10:39:16.021Z,3.40
2023-03-16T10:42:04.535Z,3.03
2023-03-16T10:44:33.443Z,2.88
2023-03-16T10:47:03.864Z,3.08
2023-03-16T10:49:48.873Z,2.73
2023-03-16T10:52:51.403Z,2.60
2023-03-16T10:55:41.712Z,2.45
2023-03-16T10:58:34.150Z,2.88
2023-03-16T11:01:01.417Z,2.53
2023-03-16T11:03:30.582Z,2.70
2023-03-16T11:06:03.026Z,2.58
2023-03-16T11:08:39.594Z,2.42
2023-03-16T11:11:18.424Z,2.45
2023-03-16T11:13:47.582Z,2.33
2023-03-16T11:16:36.234Z,2.67
2023-03-16T11:19:28.300Z,2.80
2023-03-16T11:22:16.399Z,2.53
2023-03-16T11:24:50.202Z,2.80
2023-03-16T11:27:26.594Z,3.13
2023-03-16T11:30:03.574Z,3.10
2023-03-16T11:32:40.263Z,2.90
2023-03-16T11:35:16.982Z,2.75
2023-03-16T11:37:54.558Z,3.25
2023-03-16T11:40:50.607Z,2.80
2023-03-16T11:43:38.691Z,2.57
2023-03-16T11:46:24.678Z,2.78
2023-03-16T11:49:16.148Z,3.20
2023-03-16T11:52:21.342Z,3.15
2023-03-16T11:55:04.304Z,2.80
2023-03-16T11:57:53.429Z,3.07
2023-03-16T12:01:20.224Z,2.50
2023-03-16T12:03:54.728Z,2.78
2023-03-16T12:06:36.723Z,3.30
2023-03-16T12:09:12.079Z,3.08
2023-03-16T12:12:23.511Z,2.90
2023-03-16T12:15:19.546Z,2.88
2023-03-16T12:17:47.977Z,2.83
2023-03-16T12:20:24.320Z,2.90
2023-03-16T12:23:02.546Z,2.47
2023-03-16T12:25:36.553Z,2.60
2023-03-16T12:28:11.378Z,2.50
2023-03-16T12:30:48.741Z,2.47
2023-03-16T12:33:38.259Z,2.20
2023-03-16T12:36:29.159Z,2.58
2023-03-16T12:39:19.085Z,1.93
2023-03-16T12:42:11.023Z,2.53
2023-03-16T12:44:43.593Z,2.13
2023-03-16T12:47:33.348Z,2.55
2023-03-16T12:50:26.541Z,2.50
2023-03-16T12:52:55.939Z,2.17
2023-03-16T12:55:35.700Z,2.38
2023-03-16T12:58:07.190Z,2.22
2023-03-16T13:00:39.706Z,2.25
2023-03-16T13:03:14.284Z,2.20
2023-03-16T13:05:49.809Z,2.60
2023-03-16T13:08:19.710Z,2.17
2023-03-16T13:11:12.252Z,2.53
2023-03-16T13:14:00.691Z,2.70
2023-03-16T13:16:32.592Z,2.17
2023-03-16T13:18:59.615Z,2.10
2023-03-16T13:21:36.844Z,2.00
2023-03-16T13:24:18.763Z,2.30
2023-03-16T13:27:04.995Z,2.22
2023-03-16T13:29:35.735Z,2.13
2023-03-16T13:32:08.840Z,2.57
2023-03-16T13:35:00.139Z,3.00
2023-03-16T13:37:35.113Z,1.92
2023-03-16T13:40:05.219Z,1.83
2023-03-16T13:42:35.901Z,2.33
2023-03-16T13:45:14.303Z,1.90
2023-03-16T13:47:44.979Z,1.55
2023-03-16T13:50:16.241Z,1.90
2023-03-16T13:52:43.997Z,1.60
2023-03-16T13:55:17.074Z,1.70
2023-03-16T13:57:56.071Z,1.67
2023-03-16T14:00:26.174Z,1.95
2023-03-16T14:03:01.331Z,1.73
2023-03-16T14:05:31.336Z,1.55
2023-03-16T14:07:59.264Z,1.60
2023-03-16T14:10:37.202Z,1.70
2023-03-16T14:13:23.584Z,2.40
2023-03-16T14:15:50.938Z,1.70
2023-03-16T14:18:23.190Z,1.80
2023-03-16T14:20:59.669Z,1.77
2023-03-16T14:23:40.844Z,2.00
2023-03-16T14:26:16.728Z,2.05
2023-03-16T14:28:56.033Z,1.90
2023-03-16T14:31:31.004Z,1.70
2023-03-16T14:34:03.327Z,1.67
2023-03-16T14:36:36.149Z,1.30
2023-03-16T14:39:19.374Z,1.73
2023-03-16T14:41:51.517Z,2.05
2023-03-16T14:44:24.352Z,1.90
2023-03-16T14:46:54.307Z,2.20
2023-03-16T14:49:31.330Z,2.00
2023-03-16T14:52:12.459Z,1.52
2023-03-16T14:54:39.219Z,1.85
2023-03-16T14:57:06.182Z,1.60
2023-03-16T14:59:33.882Z,1.50
2023-03-16T15:02:24.137Z,2.00
2023-03-16T15:05:09.285Z,1.23
2023-03-16T15:07:39.498Z,1.90
2023-03-16T15:10:15.616Z,1.83
2023-03-16T15:12:43.016Z,1.70
2023-03-16T15:18:07.332Z,1.40
2023-03-16T15:20:40.138Z,1.73
2023-03-16T15:23:10.470Z,1.60
2023-03-16T15:25:38.007Z,1.55
2023-03-16T15:28:13.846Z,1.40
2023-03-16T15:30:40.566Z,1.20
2023-03-16T15:33:09.609Z,1.48
2023-03-16T15:35:44.989Z,1.40
2023-03-16T15:38:18.060Z,1.67
2023-03-16T15:40:45.341Z,1.87
2023-03-16T15:43:13.781Z,1.75
2023-03-16T15:45:40.431Z,1.55
2023-03-16T15:48:09.097Z,1.58
2023-03-16T15:50:39.164Z,1.50
2023-03-16T15:53:13.247Z,1.70
2023-03-16T15:55:47.362Z,1.55
2023-03-16T15:58:20.296Z,1.52
2023-03-16T16:00:47.767Z,1.85
2023-03-16T16:03:14.689Z,1.70
2023-03-16T16:05:41.580Z,1.70
2023-03-16T16:08:08.328Z,1.80
2023-03-16T16:10:34.890Z,1.67
2023-03-16T16:13:02.185Z,1.70
2023-03-16T16:15:35.788Z,1.95
2023-03-16T16:18:20.535Z,2.40
2023-03-16T16:20:48.245Z,4.10
2023-03-16T16:23:14.991Z,2.63
2023-03-16T16:25:42.179Z,3.17
2023-03-16T16:28:22.007Z,1.83
2023-03-16T16:30:51.452Z,2.20
2023-03-16T16:33:24.762Z,4.55
2023-03-16T16:35:52.893Z,2.20
2023-03-16T16:38:22.706Z,1.90
2023-03-16T16:40:49.920Z,2.15
2023-03-16T16:43:37.362Z,1.73
2023-03-16T16:46:07.023Z,2.15
2023-03-16T16:48:39.462Z,2.13
2023-03-16T16:51:06.943Z,2.13
2023-03-16T16:53:33.582Z,2.00
2023-03-16T16:56:00.450Z,1.70
2023-03-16T16:58:27.364Z,1.77
2023-03-16T17:00:56.426Z,2.72
2023-03-16T17:03:27.230Z,2.88
2023-03-16T17:05:56.489Z,2.40
2023-03-16T17:08:23.290Z,1.60
2023-03-16T17:10:50.665Z,2.05
2023-03-16T17:13:36.979Z,1.95
2023-03-16T17:16:03.733Z,2.50
2023-03-16T17:18:30.305Z,2.30
2023-03-16T17:20:56.949Z,1.80
2023-03-16T17:23:33.417Z,1.98
2023-03-16T17:26:04.644Z,2.28
2023-03-16T17:28:35.793Z,2.40
2023-03-16T17:31:02.611Z,2.70
2023-03-16T17:33:31.935Z,2.10
2023-03-16T17:35:58.481Z,2.80
2023-03-16T17:38:25.419Z,2.80
2023-03-16T17:40:53.503Z,2.75
2023-03-16T17:43:23.084Z,2.20
2023-03-16T17:45:51.957Z,2.20
2023-03-16T17:48:21.440Z,2.42
2023-03-16T17:50:49.000Z,2.47
2023-03-16T17:53:18.535Z,2.55
2023-03-16T17:55:46.175Z,2.15
2023-03-16T17:58:27.977Z,2.27
2023-03-16T18:00:55.141Z,2.22
2023-03-16T18:03:24.790Z,2.35
2023-03-16T18:05:52.178Z,2.70
2023-03-16T18:08:27.843Z,2.45
2023-03-16T18:11:10.199Z,2.97
2023-03-16T18:13:39.434Z,3.35
2023-03-16T18:16:07.596Z,5.05
2023-03-16T18:18:38.311Z,5.45
2023-03-16T18:21:05.696Z,3.70
2023-03-16T18:23:34.605Z,3.30
2023-03-16T18:26:01.905Z,3.10
2023-03-16T18:28:29.023Z,3.40
2023-03-16T18:30:57.044Z,3.35
2023-03-16T18:33:30.468Z,3.90
2023-03-16T18:36:06.317Z,4.10
2023-03-16T18:38:39.048Z,4.32
2023-03-16T18:41:25.015Z,3.40
2023-03-16T18:43:56.391Z,2.80
2023-03-16T18:46:31.741Z,3.20
2023-03-16T18:49:28.429Z,3.60
2023-03-16T18:51:55.217Z,3.67
2023-03-16T18:54:30.418Z,3.33
2023-03-16T18:56:58.171Z,3.00
2023-03-16T18:59:25.426Z,2.63
2023-03-16T19:01:53.399Z,3.13
2023-03-16T19:04:26.065Z,2.60
2023-03-16T19:06:54.491Z,4.13
2023-03-16T19:09:27.899Z,3.60
2023-03-16T19:11:54.540Z,3.50
2023-03-16T19:14:39.448Z,3.30
2023-03-16T19:17:06.138Z,3.78
2023-03-16T19:19:32.762Z,3.35
2023-03-16T19:22:07.181Z,3.88
2023-03-16T19:24:55.259Z,3.75
2023-03-16T19:27:29.845Z,4.10
2023-03-16T19:29:56.478Z,3.53
2023-03-16T19:32:23.186Z,4.38
2023-03-16T19:34:50.139Z,4.90
2023-03-16T19:37:17.308Z,4.65
2023-03-16T19:39:43.934Z,4.60
2023-03-16T19:42:33.926Z,4.22
2023-03-16T19:45:00.994Z,4.15
2023-03-16T19:47:33.461Z,3.65
2023-03-16T19:50:00.426Z,3.10
2023-03-16T19:52:28.367Z,3.57
2023-03-16T19:54:56.039Z,3.30
2023-03-16T19:57:23.263Z,3.38
2023-03-16T19:59:55.084Z,3.97
2023-03-16T20:02:31.606Z,3.50
2023-03-16T20:04:58.282Z,4.10
2023-03-16T20:07:24.866Z,3.80
2023-03-16T20:09:51.494Z,3.95
2023-03-16T20:12:24.074Z,3.80
2023-03-16T20:14:51.146Z,4.00
2023-03-16T20:17:23.494Z,3.17
2023-03-16T20:19:51.229Z,3.75
2023-03-16T20:22:20.777Z,3.95
2023-03-16T20:24:48.141Z,4.35
2023-03-16T20:27:16.623Z,4.10
2023-03-16T20:29:43.373Z,3.90
2023-03-16T20:32:28.250Z,4.35
2023-03-16T20:34:54.887Z,3.78
2023-03-16T20:37:23.105Z,4.05
2023-03-16T20:39:51.219Z,4.18
2023-03-16T20:42:19.725Z,3.73
2023-03-16T20:44:46.282Z,4.82
2023-03-16T20:47:18.239Z,4.30
2023-03-16T20:49:47.308Z,4.85
2023-03-16T20:52:25.085Z,4.57
2023-03-16T20:54:52.258Z,5.13
2023-03-16T20:57:27.221Z,5.10
2023-03-16T20:59:54.207Z,4.70
2023-03-16T21:02:34.554Z,4.72
2023-03-16T21:05:03.721Z,4.10
2023-03-16T21:07:31.448Z,3.73
2023-03-16T21:09:58.072Z,4.25
2023-03-16T21:12:30.125Z,4.30
2023-03-16T21:14:57.335Z,4.40
2023-03-16T21:17:26.915Z,4.10
2023-03-16T21:19:53.650Z,4.23
2023-03-16T21:22:26.852Z,4.72
2023-03-16T21:24:54.569Z,4.60
2023-03-16T21:27:30.577Z,4.32
2023-03-16T21:30:00.576Z,4.03
2023-03-16T21:32:27.989Z,4.17
2023-03-16T21:34:56.817Z,4.30
2023-03-16T21:37:23.474Z,4.47
2023-03-16T21:39:51.292Z,4.50
2023-03-16T21:42:18.741Z,4.60
2023-03-16T21:44:45.368Z,4.70
2023-03-16T21:47:25.131Z,4.50
2023-03-16T21:49:52.438Z,4.60
2023-03-16T21:52:29.197Z,5.65
2023-03-16T21:54:57.269Z,4.78
2023-03-16T21:57:24.283Z,4.87
2023-03-16T21:59:50.828Z,4.72
2023-03-16T22:02:20.666Z,4.78
2023-03-16T22:04:47.686Z,4.38
2023-03-16T22:07:15.107Z,4.30
2023-03-16T22:09:41.742Z,4.63
2023-03-16T22:12:13.179Z,5.10
2023-03-16T22:14:40.547Z,4.85
2023-03-16T22:17:12.029Z,4.97
2023-03-16T22:19:38.758Z,4.28
2023-03-16T22:22:06.367Z,4.57
2023-03-16T22:24:34.951Z,4.10
2023-03-16T22:27:01.636Z,4.97
2023-03-16T22:29:32.739Z,4.55
2023-03-16T22:32:02.931Z,4.78
2023-03-16T22:34:46.558Z,4.37
2023-03-16T22:37:18.478Z,4.40
2023-03-16T22:39:45.134Z,4.50
2023-03-16T22:42:26.588Z,3.55
2023-03-16T22:44:54.607Z,3.78
2023-03-16T22:47:22.885Z,3.70
2023-03-16T22:49:49.503Z,3.78
2023-03-16T22:52:16.200Z,4.00
2023-03-16T22:54:43.326Z,3.85
2023-03-16T22:57:15.243Z,3.75
2023-03-16T22:59:43.195Z,4.30
2023-03-16T23:02:18.126Z,3.30
2023-03-16T23:04:44.864Z,3.47
2023-03-16T23:07:13.599Z,3.97
2023-03-16T23:09:40.729Z,4.10
2023-03-16T23:12:20.893Z,3.03
2023-03-16T23:14:47.593Z,3.80
2023-03-16T23:17:19.929Z,3.63
2023-03-16T23:19:46.936Z,3.58
2023-03-16T23:22:13.531Z,3.10
2023-03-16T23:24:40.606Z,3.67
2023-03-16T23:27:16.689Z,3.58
2023-03-16T23:29:43.478Z,2.88
2023-03-16T23:32:11.147Z,3.47
2023-03-16T23:34:37.674Z,2.90
2023-03-16T23:37:04.321Z,3.70
2023-03-16T23:39:30.907Z,3.28
2023-03-16T23:41:57.733Z,3.22
2023-03-16T23:44:27.645Z,3.65
2023-03-16T23:46:54.406Z,3.53
2023-03-16T23:49:24.499Z,3.43
2023-03-16T23:51:52.620Z,2.90
2023-03-16T23:54:25.513Z,3.30
2023-03-16T23:56:52.148Z,3.65
2023-03-16T23:59:19.179Z,3.20
